Terminal Aerodrome Forecast
Issued by NWS Charleston, WV

Current Version | Previous Version | Graphics & Text | Print | Product List | Glossary On
Versions: 1 2 3 4 5 6 7 8 9 10 11 12 13 14 15 16 17 18 19 20 21 22 23 24 25 26 27
000
FTUS41 KRLX 282100 AAA
TAFHTS
TAF AMD
KHTS 282152Z 2822/2918 31009KT P6SM SCT025 OVC050
      TEMPO 2822/2823 -SHRA BKN025 OVC050
     FM290500 VRB03KT 5SM BR SCT080
     FM290800 VRB03KT 2SM BR SCT040
     FM290900 00000KT 1 1/2SM BR SCT040
     FM291100 00000KT 1/2SM FG VV001
     FM291300 00000KT 3SM BR FEW070
     FM291400 VRB03KT P6SM SCT200
     FM291600 30004KT P6SM SCT040=

USA.gov is the U.S. government's official web portal to all federal, state and local government web resources and services.